Ashtead, United Kingdom
Current Conditions -  °F | °C
As of 6:20 PM on Monday 24 Nov 2014 (Local Time) from EGKK Reporting Station
Clear Clear  
Wind Chill: 37°   Ceiling: Unl
Heat Index: 37°   Visibility: 5mi
Dew Point: 36°   Wind: 3mph
Humidity: 93%   Direction: NA
Pressure: 30.33"   Gusts: NA
Location:  51.31°N, 0.3°W
Report Text: EGKK 241820Z VRB03KT 8000 NSC 03/02 Q1027
Loading
Personal Weather Stations






























Interactive Weather Map New forecast layout! Learn more

10-Day Weather Forecast

Advertisements
Track Severe Weather on mobile